sensor_id;sensor_type;location;lat;lon;timestamp;P1;durP1;ratioP1;P2;durP2;ratioP2
46216;SDS011;47258;59.424;13.482;2022-09-27T00:00:39;4.35;;;1.83;;
46216;SDS011;47258;59.424;13.482;2022-09-27T00:03:07;9.48;;;3.15;;
46216;SDS011;47258;59.424;13.482;2022-09-27T00:05:34;4.97;;;2.90;;
46216;SDS011;47258;59.424;13.482;2022-09-27T00:08:02;5.53;;;2.90;;
46216;SDS011;47258;59.424;13.482;2022-09-27T00:10:29;4.88;;;2.40;;
46216;SDS011;47258;59.424;13.482;2022-09-27T00:12:56;7.05;;;3.35;;
46216;SDS011;47258;59.424;13.482;2022-09-27T00:15:25;4.35;;;2.67;;
46216;SDS011;47258;59.424;13.482;2022-09-27T00:17:52;10.45;;;3.05;;
46216;SDS011;47258;59.424;13.482;2022-09-27T00:20:19;4.18;;;2.63;;
46216;SDS011;47258;59.424;13.482;2022-09-27T00:22:47;6.55;;;2.53;;
46216;SDS011;47258;59.424;13.482;2022-09-27T00:25:15;4.95;;;2.65;;
46216;SDS011;47258;59.424;13.482;2022-09-27T00:27:42;6.82;;;2.67;;
46216;SDS011;47258;59.424;13.482;2022-09-27T00:30:10;14.52;;;2.83;;
46216;SDS011;47258;59.424;13.482;2022-09-27T00:32:39;8.63;;;2.65;;
46216;SDS011;47258;59.424;13.482;2022-09-27T00:35:07;3.35;;;2.75;;
46216;SDS011;47258;59.424;13.482;2022-09-27T00:37:34;6.72;;;3.00;;
46216;SDS011;47258;59.424;13.482;2022-09-27T00:40:01;5.78;;;2.60;;
46216;SDS011;47258;59.424;13.482;2022-09-27T00:42:29;8.32;;;3.00;;
46216;SDS011;47258;59.424;13.482;2022-09-27T00:45:05;4.72;;;2.88;;
46216;SDS011;47258;59.424;13.482;2022-09-27T00:47:35;7.70;;;3.20;;
46216;SDS011;47258;59.424;13.482;2022-09-27T00:50:07;6.78;;;2.80;;
46216;SDS011;47258;59.424;13.482;2022-09-27T00:52:37;6.80;;;2.83;;
46216;SDS011;47258;59.424;13.482;2022-09-27T00:55:07;12.40;;;3.17;;
46216;SDS011;47258;59.424;13.482;2022-09-27T00:57:36;5.47;;;2.65;;
46216;SDS011;47258;59.424;13.482;2022-09-27T01:00:04;6.70;;;2.47;;
46216;SDS011;47258;59.424;13.482;2022-09-27T01:05:01;10.18;;;2.60;;
46216;SDS011;47258;59.424;13.482;2022-09-27T01:07:30;7.07;;;2.90;;
46216;SDS011;47258;59.424;13.482;2022-09-27T01:09:59;5.05;;;2.70;;
46216;SDS011;47258;59.424;13.482;2022-09-27T01:12:27;6.60;;;2.55;;
46216;SDS011;47258;59.424;13.482;2022-09-27T01:15:00;9.13;;;2.70;;
46216;SDS011;47258;59.424;13.482;2022-09-27T01:17:36;6.15;;;2.97;;
46216;SDS011;47258;59.424;13.482;2022-09-27T01:20:13;6.00;;;2.75;;
46216;SDS011;47258;59.424;13.482;2022-09-27T01:22:46;3.95;;;2.80;;
46216;SDS011;47258;59.424;13.482;2022-09-27T01:25:27;4.63;;;2.80;;
46216;SDS011;47258;59.424;13.482;2022-09-27T01:28:05;4.38;;;2.53;;
46216;SDS011;47258;59.424;13.482;2022-09-27T01:30:42;7.47;;;2.97;;
46216;SDS011;47258;59.424;13.482;2022-09-27T01:33:17;6.38;;;3.03;;
46216;SDS011;47258;59.424;13.482;2022-09-27T01:35:50;6.95;;;3.90;;
46216;SDS011;47258;59.424;13.482;2022-09-27T01:38:22;6.22;;;2.53;;
46216;SDS011;47258;59.424;13.482;2022-09-27T01:40:52;5.65;;;2.78;;
46216;SDS011;47258;59.424;13.482;2022-09-27T01:43:21;4.07;;;2.50;;
46216;SDS011;47258;59.424;13.482;2022-09-27T01:45:51;9.40;;;3.40;;
46216;SDS011;47258;59.424;13.482;2022-09-27T01:48:21;16.02;;;3.75;;
46216;SDS011;47258;59.424;13.482;2022-09-27T01:50:49;6.30;;;3.35;;
46216;SDS011;47258;59.424;13.482;2022-09-27T01:53:19;4.43;;;2.55;;
46216;SDS011;47258;59.424;13.482;2022-09-27T01:55:48;5.25;;;3.10;;
46216;SDS011;47258;59.424;13.482;2022-09-27T01:58:16;10.30;;;2.40;;
46216;SDS011;47258;59.424;13.482;2022-09-27T02:00:46;3.92;;;2.08;;
46216;SDS011;47258;59.424;13.482;2022-09-27T02:03:15;4.55;;;2.53;;
46216;SDS011;47258;59.424;13.482;2022-09-27T02:05:45;5.20;;;2.17;;
46216;SDS011;47258;59.424;13.482;2022-09-27T02:08:14;3.78;;;2.63;;
46216;SDS011;47258;59.424;13.482;2022-09-27T02:10:43;4.18;;;2.47;;
46216;SDS011;47258;59.424;13.482;2022-09-27T02:13:14;3.40;;;2.58;;
46216;SDS011;47258;59.424;13.482;2022-09-27T02:15:44;3.10;;;2.38;;
46216;SDS011;47258;59.424;13.482;2022-09-27T02:18:16;8.93;;;3.00;;
46216;SDS011;47258;59.424;13.482;2022-09-27T02:20:45;4.53;;;2.42;;
46216;SDS011;47258;59.424;13.482;2022-09-27T02:23:17;3.90;;;2.63;;
46216;SDS011;47258;59.424;13.482;2022-09-27T02:25:48;5.07;;;2.80;;
46216;SDS011;47258;59.424;13.482;2022-09-27T02:28:20;8.27;;;2.65;;
46216;SDS011;47258;59.424;13.482;2022-09-27T02:30:49;5.28;;;2.55;;
46216;SDS011;47258;59.424;13.482;2022-09-27T02:33:18;7.93;;;2.50;;
46216;SDS011;47258;59.424;13.482;2022-09-27T02:35:46;10.60;;;3.03;;
46216;SDS011;47258;59.424;13.482;2022-09-27T02:38:14;3.65;;;2.50;;
46216;SDS011;47258;59.424;13.482;2022-09-27T02:40:42;7.97;;;3.10;;
46216;SDS011;47258;59.424;13.482;2022-09-27T02:43:09;6.43;;;2.67;;
46216;SDS011;47258;59.424;13.482;2022-09-27T02:45:40;9.90;;;3.63;;
46216;SDS011;47258;59.424;13.482;2022-09-27T02:48:12;14.73;;;3.15;;
46216;SDS011;47258;59.424;13.482;2022-09-27T02:50:56;5.38;;;3.25;;
46216;SDS011;47258;59.424;13.482;2022-09-27T02:53:30;7.05;;;3.70;;
46216;SDS011;47258;59.424;13.482;2022-09-27T02:56:04;6.32;;;2.97;;
46216;SDS011;47258;59.424;13.482;2022-09-27T02:58:37;5.55;;;2.00;;
46216;SDS011;47258;59.424;13.482;2022-09-27T03:01:07;8.23;;;2.95;;
46216;SDS011;47258;59.424;13.482;2022-09-27T03:03:38;3.88;;;2.70;;
46216;SDS011;47258;59.424;13.482;2022-09-27T03:06:09;10.35;;;2.95;;
46216;SDS011;47258;59.424;13.482;2022-09-27T03:08:37;4.25;;;2.55;;
46216;SDS011;47258;59.424;13.482;2022-09-27T03:11:05;8.10;;;2.95;;
46216;SDS011;47258;59.424;13.482;2022-09-27T03:13:32;4.60;;;2.50;;
46216;SDS011;47258;59.424;13.482;2022-09-27T03:16:03;4.05;;;2.50;;
46216;SDS011;47258;59.424;13.482;2022-09-27T03:18:30;5.18;;;2.88;;
46216;SDS011;47258;59.424;13.482;2022-09-27T03:20:58;2.97;;;2.67;;
46216;SDS011;47258;59.424;13.482;2022-09-27T03:23:26;2.67;;;2.30;;
46216;SDS011;47258;59.424;13.482;2022-09-27T03:25:53;9.05;;;3.03;;
46216;SDS011;47258;59.424;13.482;2022-09-27T03:28:21;7.25;;;2.67;;
46216;SDS011;47258;59.424;13.482;2022-09-27T03:30:50;6.05;;;2.78;;
46216;SDS011;47258;59.424;13.482;2022-09-27T03:33:17;4.97;;;2.80;;
46216;SDS011;47258;59.424;13.482;2022-09-27T03:35:44;3.03;;;2.30;;
46216;SDS011;47258;59.424;13.482;2022-09-27T03:38:12;7.47;;;2.17;;
46216;SDS011;47258;59.424;13.482;2022-09-27T03:40:40;3.92;;;2.40;;
46216;SDS011;47258;59.424;13.482;2022-09-27T03:43:08;3.40;;;2.42;;
46216;SDS011;47258;59.424;13.482;2022-09-27T03:45:35;4.78;;;2.55;;
46216;SDS011;47258;59.424;13.482;2022-09-27T03:48:02;11.13;;;2.92;;
46216;SDS011;47258;59.424;13.482;2022-09-27T03:50:30;5.47;;;2.42;;
46216;SDS011;47258;59.424;13.482;2022-09-27T03:52:57;7.45;;;2.40;;
46216;SDS011;47258;59.424;13.482;2022-09-27T03:55:24;8.10;;;2.45;;
46216;SDS011;47258;59.424;13.482;2022-09-27T03:57:53;5.38;;;2.17;;
46216;SDS011;47258;59.424;13.482;2022-09-27T04:00:20;3.22;;;2.60;;
46216;SDS011;47258;59.424;13.482;2022-09-27T04:02:48;7.32;;;2.08;;
46216;SDS011;47258;59.424;13.482;2022-09-27T04:05:16;6.85;;;2.58;;
46216;SDS011;47258;59.424;13.482;2022-09-27T04:07:45;4.20;;;2.50;;
46216;SDS011;47258;59.424;13.482;2022-09-27T04:10:12;6.45;;;2.83;;
46216;SDS011;47258;59.424;13.482;2022-09-27T04:12:39;3.55;;;2.40;;
46216;SDS011;47258;59.424;13.482;2022-09-27T04:15:09;3.85;;;2.65;;
46216;SDS011;47258;59.424;13.482;2022-09-27T04:17:36;2.88;;;2.65;;
46216;SDS011;47258;59.424;13.482;2022-09-27T04:20:04;3.03;;;2.72;;
46216;SDS011;47258;59.424;13.482;2022-09-27T04:22:32;5.10;;;3.33;;
46216;SDS011;47258;59.424;13.482;2022-09-27T04:24:59;6.22;;;2.90;;
46216;SDS011;47258;59.424;13.482;2022-09-27T04:27:26;5.78;;;2.80;;
46216;SDS011;47258;59.424;13.482;2022-09-27T04:29:53;6.20;;;2.88;;
46216;SDS011;47258;59.424;13.482;2022-09-27T04:32:22;8.25;;;3.60;;
46216;SDS011;47258;59.424;13.482;2022-09-27T04:34:49;4.38;;;2.92;;
46216;SDS011;47258;59.424;13.482;2022-09-27T04:37:34;3.88;;;3.08;;
46216;SDS011;47258;59.424;13.482;2022-09-27T04:40:02;2.78;;;1.98;;
46216;SDS011;47258;59.424;13.482;2022-09-27T04:42:29;5.72;;;3.00;;
46216;SDS011;47258;59.424;13.482;2022-09-27T04:44:58;7.00;;;3.10;;
46216;SDS011;47258;59.424;13.482;2022-09-27T04:47:26;5.78;;;2.75;;
46216;SDS011;47258;59.424;13.482;2022-09-27T04:49:54;6.60;;;2.70;;
46216;SDS011;47258;59.424;13.482;2022-09-27T04:52:21;5.32;;;2.58;;
46216;SDS011;47258;59.424;13.482;2022-09-27T04:54:48;6.93;;;2.58;;
46216;SDS011;47258;59.424;13.482;2022-09-27T04:57:15;4.30;;;2.53;;
46216;SDS011;47258;59.424;13.482;2022-09-27T04:59:43;8.63;;;2.33;;
46216;SDS011;47258;59.424;13.482;2022-09-27T05:02:10;3.50;;;2.80;;
46216;SDS011;47258;59.424;13.482;2022-09-27T05:04:38;2.55;;;2.35;;
46216;SDS011;47258;59.424;13.482;2022-09-27T05:07:06;5.82;;;2.65;;
46216;SDS011;47258;59.424;13.482;2022-09-27T05:09:33;8.80;;;3.30;;
46216;SDS011;47258;59.424;13.482;2022-09-27T05:12:00;2.97;;;2.78;;
46216;SDS011;47258;59.424;13.482;2022-09-27T05:14:31;3.75;;;2.70;;
46216;SDS011;47258;59.424;13.482;2022-09-27T05:16:58;2.10;;;1.95;;
46216;SDS011;47258;59.424;13.482;2022-09-27T05:19:25;3.85;;;2.35;;
46216;SDS011;47258;59.424;13.482;2022-09-27T05:21:54;2.75;;;2.42;;
46216;SDS011;47258;59.424;13.482;2022-09-27T05:24:21;14.75;;;4.25;;
46216;SDS011;47258;59.424;13.482;2022-09-27T05:26:49;5.13;;;3.03;;
46216;SDS011;47258;59.424;13.482;2022-09-27T05:29:16;4.05;;;2.33;;
46216;SDS011;47258;59.424;13.482;2022-09-27T05:31:43;5.00;;;2.53;;
46216;SDS011;47258;59.424;13.482;2022-09-27T05:34:11;4.30;;;2.30;;
46216;SDS011;47258;59.424;13.482;2022-09-27T05:36:38;6.07;;;2.22;;
46216;SDS011;47258;59.424;13.482;2022-09-27T05:39:07;5.25;;;2.28;;
46216;SDS011;47258;59.424;13.482;2022-09-27T05:41:34;6.95;;;1.83;;
46216;SDS011;47258;59.424;13.482;2022-09-27T05:44:01;3.58;;;1.80;;
46216;SDS011;47258;59.424;13.482;2022-09-27T05:46:30;2.55;;;2.35;;
46216;SDS011;47258;59.424;13.482;2022-09-27T05:48:57;2.05;;;1.92;;
46216;SDS011;47258;59.424;13.482;2022-09-27T05:51:24;2.60;;;1.85;;
46216;SDS011;47258;59.424;13.482;2022-09-27T05:53:52;2.33;;;2.13;;
46216;SDS011;47258;59.424;13.482;2022-09-27T05:56:21;2.03;;;1.83;;
46216;SDS011;47258;59.424;13.482;2022-09-27T05:58:48;5.40;;;2.22;;
46216;SDS011;47258;59.424;13.482;2022-09-27T06:01:16;5.90;;;2.15;;
46216;SDS011;47258;59.424;13.482;2022-09-27T06:03:43;3.42;;;2.25;;
46216;SDS011;47258;59.424;13.482;2022-09-27T06:06:11;3.58;;;1.60;;
46216;SDS011;47258;59.424;13.482;2022-09-27T06:08:39;4.60;;;2.25;;
46216;SDS011;47258;59.424;13.482;2022-09-27T06:11:07;2.78;;;2.25;;
46216;SDS011;47258;59.424;13.482;2022-09-27T06:13:37;4.60;;;2.42;;
46216;SDS011;47258;59.424;13.482;2022-09-27T06:16:05;4.50;;;2.60;;
46216;SDS011;47258;59.424;13.482;2022-09-27T06:18:32;3.90;;;2.33;;
46216;SDS011;47258;59.424;13.482;2022-09-27T06:21:00;7.82;;;2.50;;
46216;SDS011;47258;59.424;13.482;2022-09-27T06:23:27;2.97;;;2.47;;
46216;SDS011;47258;59.424;13.482;2022-09-27T06:25:59;7.20;;;2.90;;
46216;SDS011;47258;59.424;13.482;2022-09-27T06:28:27;3.50;;;2.20;;
46216;SDS011;47258;59.424;13.482;2022-09-27T06:30:55;4.38;;;2.15;;
46216;SDS011;47258;59.424;13.482;2022-09-27T06:33:24;6.20;;;2.35;;
46216;SDS011;47258;59.424;13.482;2022-09-27T06:35:53;1.92;;;1.75;;
46216;SDS011;47258;59.424;13.482;2022-09-27T06:38:20;3.15;;;2.10;;
46216;SDS011;47258;59.424;13.482;2022-09-27T06:40:49;4.72;;;1.52;;
46216;SDS011;47258;59.424;13.482;2022-09-27T06:43:16;2.05;;;1.60;;
46216;SDS011;47258;59.424;13.482;2022-09-27T06:45:44;4.28;;;2.03;;
46216;SDS011;47258;59.424;13.482;2022-09-27T06:48:13;3.47;;;1.70;;
46216;SDS011;47258;59.424;13.482;2022-09-27T06:53:09;1.95;;;1.85;;
46216;SDS011;47258;59.424;13.482;2022-09-27T06:55:37;4.07;;;1.75;;
46216;SDS011;47258;59.424;13.482;2022-09-27T06:58:05;8.00;;;2.60;;
46216;SDS011;47258;59.424;13.482;2022-09-27T07:00:50;3.60;;;1.40;;
46216;SDS011;47258;59.424;13.482;2022-09-27T07:03:19;2.65;;;1.50;;
46216;SDS011;47258;59.424;13.482;2022-09-27T07:05:54;2.67;;;1.40;;
46216;SDS011;47258;59.424;13.482;2022-09-27T07:08:22;4.30;;;1.35;;
46216;SDS011;47258;59.424;13.482;2022-09-27T07:10:53;2.47;;;2.08;;
46216;SDS011;47258;59.424;13.482;2022-09-27T07:13:20;2.55;;;2.00;;
46216;SDS011;47258;59.424;13.482;2022-09-27T07:15:48;2.20;;;2.00;;
46216;SDS011;47258;59.424;13.482;2022-09-27T07:18:15;5.82;;;2.00;;
46216;SDS011;47258;59.424;13.482;2022-09-27T07:20:44;2.70;;;1.90;;
46216;SDS011;47258;59.424;13.482;2022-09-27T07:23:11;7.18;;;2.13;;
46216;SDS011;47258;59.424;13.482;2022-09-27T07:25:40;4.55;;;1.95;;
46216;SDS011;47258;59.424;13.482;2022-09-27T07:28:08;3.05;;;1.95;;
46216;SDS011;47258;59.424;13.482;2022-09-27T07:30:36;2.17;;;2.00;;
46216;SDS011;47258;59.424;13.482;2022-09-27T07:33:04;2.92;;;2.00;;
46216;SDS011;47258;59.424;13.482;2022-09-27T07:35:33;1.80;;;1.60;;
46216;SDS011;47258;59.424;13.482;2022-09-27T07:38:02;3.95;;;2.10;;
46216;SDS011;47258;59.424;13.482;2022-09-27T07:40:29;4.30;;;2.30;;
46216;SDS011;47258;59.424;13.482;2022-09-27T07:42:57;4.07;;;2.20;;
46216;SDS011;47258;59.424;13.482;2022-09-27T07:45:24;6.03;;;2.22;;
46216;SDS011;47258;59.424;13.482;2022-09-27T07:47:52;1.73;;;1.63;;
46216;SDS011;47258;59.424;13.482;2022-09-27T07:50:20;4.43;;;1.92;;
46216;SDS011;47258;59.424;13.482;2022-09-27T07:52:47;2.42;;;1.45;;
46216;SDS011;47258;59.424;13.482;2022-09-27T07:55:17;8.98;;;2.10;;
46216;SDS011;47258;59.424;13.482;2022-09-27T07:57:44;2.83;;;2.00;;
46216;SDS011;47258;59.424;13.482;2022-09-27T08:00:13;4.03;;;2.17;;
46216;SDS011;47258;59.424;13.482;2022-09-27T08:02:41;3.20;;;1.60;;
46216;SDS011;47258;59.424;13.482;2022-09-27T08:05:08;6.30;;;2.42;;
46216;SDS011;47258;59.424;13.482;2022-09-27T08:07:36;1.55;;;1.45;;
46216;SDS011;47258;59.424;13.482;2022-09-27T08:10:04;5.85;;;2.20;;
46216;SDS011;47258;59.424;13.482;2022-09-27T08:12:33;6.28;;;2.13;;
46216;SDS011;47258;59.424;13.482;2022-09-27T08:15:00;5.07;;;2.40;;
46216;SDS011;47258;59.424;13.482;2022-09-27T08:17:28;4.90;;;2.15;;
46216;SDS011;47258;59.424;13.482;2022-09-27T08:19:56;3.30;;;2.00;;
46216;SDS011;47258;59.424;13.482;2022-09-27T08:22:23;7.10;;;1.80;;
46216;SDS011;47258;59.424;13.482;2022-09-27T08:24:50;5.78;;;2.53;;
46216;SDS011;47258;59.424;13.482;2022-09-27T08:27:17;4.75;;;2.00;;
46216;SDS011;47258;59.424;13.482;2022-09-27T08:29:46;4.22;;;1.88;;
46216;SDS011;47258;59.424;13.482;2022-09-27T08:32:13;4.80;;;2.70;;
46216;SDS011;47258;59.424;13.482;2022-09-27T08:34:42;3.97;;;1.70;;
46216;SDS011;47258;59.424;13.482;2022-09-27T08:37:09;5.40;;;2.35;;
46216;SDS011;47258;59.424;13.482;2022-09-27T08:39:36;4.18;;;2.13;;
46216;SDS011;47258;59.424;13.482;2022-09-27T08:42:05;4.82;;;2.72;;
46216;SDS011;47258;59.424;13.482;2022-09-27T08:44:36;5.32;;;2.35;;
46216;SDS011;47258;59.424;13.482;2022-09-27T08:47:08;3.60;;;2.00;;
46216;SDS011;47258;59.424;13.482;2022-09-27T08:49:37;3.60;;;2.38;;
46216;SDS011;47258;59.424;13.482;2022-09-27T08:52:07;4.00;;;2.10;;
46216;SDS011;47258;59.424;13.482;2022-09-27T08:54:35;4.70;;;2.70;;
46216;SDS011;47258;59.424;13.482;2022-09-27T08:57:04;4.72;;;2.63;;
46216;SDS011;47258;59.424;13.482;2022-09-27T08:59:33;3.08;;;2.25;;
46216;SDS011;47258;59.424;13.482;2022-09-27T09:04:30;7.07;;;2.42;;
46216;SDS011;47258;59.424;13.482;2022-09-27T09:07:03;5.10;;;2.25;;
46216;SDS011;47258;59.424;13.482;2022-09-27T09:09:36;7.53;;;2.13;;
46216;SDS011;47258;59.424;13.482;2022-09-27T09:12:07;7.25;;;2.83;;
46216;SDS011;47258;59.424;13.482;2022-09-27T09:14:57;2.20;;;1.88;;
46216;SDS011;47258;59.424;13.482;2022-09-27T09:17:33;2.30;;;1.80;;
46216;SDS011;47258;59.424;13.482;2022-09-27T09:20:12;4.80;;;2.17;;
46216;SDS011;47258;59.424;13.482;2022-09-27T09:22:46;3.38;;;2.35;;
46216;SDS011;47258;59.424;13.482;2022-09-27T09:25:21;2.50;;;2.20;;
46216;SDS011;47258;59.424;13.482;2022-09-27T09:27:51;3.45;;;2.22;;
46216;SDS011;47258;59.424;13.482;2022-09-27T09:30:21;3.13;;;2.15;;
46216;SDS011;47258;59.424;13.482;2022-09-27T09:35:41;3.05;;;1.95;;
46216;SDS011;47258;59.424;13.482;2022-09-27T09:38:12;2.17;;;2.05;;
46216;SDS011;47258;59.424;13.482;2022-09-27T09:40:42;4.07;;;2.10;;
46216;SDS011;47258;59.424;13.482;2022-09-27T09:43:13;13.75;;;3.28;;
46216;SDS011;47258;59.424;13.482;2022-09-27T09:45:41;4.35;;;2.35;;
46216;SDS011;47258;59.424;13.482;2022-09-27T09:50:41;4.18;;;2.40;;
46216;SDS011;47258;59.424;13.482;2022-09-27T09:53:11;5.82;;;3.05;;
46216;SDS011;47258;59.424;13.482;2022-09-27T09:55:40;6.75;;;2.40;;
46216;SDS011;47258;59.424;13.482;2022-09-27T09:58:13;5.18;;;3.00;;
46216;SDS011;47258;59.424;13.482;2022-09-27T10:00:46;1.98;;;1.85;;
46216;SDS011;47258;59.424;13.482;2022-09-27T10:03:13;2.97;;;1.95;;
46216;SDS011;47258;59.424;13.482;2022-09-27T10:05:41;2.63;;;1.50;;
46216;SDS011;47258;59.424;13.482;2022-09-27T10:08:11;3.40;;;2.45;;
46216;SDS011;47258;59.424;13.482;2022-09-27T10:10:41;4.03;;;1.95;;
46216;SDS011;47258;59.424;13.482;2022-09-27T10:13:08;5.07;;;2.17;;
46216;SDS011;47258;59.424;13.482;2022-09-27T10:15:38;6.70;;;1.90;;
46216;SDS011;47258;59.424;13.482;2022-09-27T10:18:07;3.13;;;1.85;;
46216;SDS011;47258;59.424;13.482;2022-09-27T10:20:38;2.67;;;2.08;;
46216;SDS011;47258;59.424;13.482;2022-09-27T10:23:10;6.38;;;2.20;;
46216;SDS011;47258;59.424;13.482;2022-09-27T10:25:51;3.03;;;2.00;;
46216;SDS011;47258;59.424;13.482;2022-09-27T10:28:25;1.67;;;1.52;;
46216;SDS011;47258;59.424;13.482;2022-09-27T10:30:55;1.67;;;1.58;;
46216;SDS011;47258;59.424;13.482;2022-09-27T10:33:23;5.25;;;2.13;;
46216;SDS011;47258;59.424;13.482;2022-09-27T10:35:51;3.10;;;1.98;;
46216;SDS011;47258;59.424;13.482;2022-09-27T10:38:23;2.22;;;1.70;;
46216;SDS011;47258;59.424;13.482;2022-09-27T10:40:53;1.95;;;1.83;;
46216;SDS011;47258;59.424;13.482;2022-09-27T10:45:47;5.20;;;2.63;;
46216;SDS011;47258;59.424;13.482;2022-09-27T10:48:17;3.05;;;1.65;;
46216;SDS011;47258;59.424;13.482;2022-09-27T10:50:53;2.35;;;1.30;;
46216;SDS011;47258;59.424;13.482;2022-09-27T10:53:22;4.65;;;1.90;;
46216;SDS011;47258;59.424;13.482;2022-09-27T10:55:50;2.17;;;1.67;;
46216;SDS011;47258;59.424;13.482;2022-09-27T10:58:19;4.40;;;1.50;;
46216;SDS011;47258;59.424;13.482;2022-09-27T11:00:54;2.53;;;2.03;;
46216;SDS011;47258;59.424;13.482;2022-09-27T11:03:22;3.85;;;1.85;;
46216;SDS011;47258;59.424;13.482;2022-09-27T11:05:53;2.08;;;1.85;;
46216;SDS011;47258;59.424;13.482;2022-09-27T11:08:27;3.05;;;1.63;;
46216;SDS011;47258;59.424;13.482;2022-09-27T11:11:02;5.70;;;1.50;;
46216;SDS011;47258;59.424;13.482;2022-09-27T11:13:32;4.80;;;1.77;;
46216;SDS011;47258;59.424;13.482;2022-09-27T11:19:00;4.88;;;1.67;;
46216;SDS011;47258;59.424;13.482;2022-09-27T11:21:32;6.43;;;1.85;;
46216;SDS011;47258;59.424;13.482;2022-09-27T11:24:10;4.53;;;2.17;;
46216;SDS011;47258;59.424;13.482;2022-09-27T11:26:42;3.50;;;1.92;;
46216;SDS011;47258;59.424;13.482;2022-09-27T11:29:19;2.80;;;1.77;;
46216;SDS011;47258;59.424;13.482;2022-09-27T11:31:51;6.03;;;2.05;;
46216;SDS011;47258;59.424;13.482;2022-09-27T11:34:38;5.88;;;2.22;;
46216;SDS011;47258;59.424;13.482;2022-09-27T11:37:11;2.35;;;1.83;;
46216;SDS011;47258;59.424;13.482;2022-09-27T11:39:45;5.93;;;1.90;;
46216;SDS011;47258;59.424;13.482;2022-09-27T11:42:23;2.90;;;1.55;;
46216;SDS011;47258;59.424;13.482;2022-09-27T11:45:01;2.55;;;1.73;;
46216;SDS011;47258;59.424;13.482;2022-09-27T11:47:35;10.77;;;2.47;;
46216;SDS011;47258;59.424;13.482;2022-09-27T11:50:18;3.55;;;1.63;;
46216;SDS011;47258;59.424;13.482;2022-09-27T11:52:50;5.88;;;2.30;;
46216;SDS011;47258;59.424;13.482;2022-09-27T11:55:27;3.75;;;2.10;;
46216;SDS011;47258;59.424;13.482;2022-09-27T11:57:58;1.83;;;1.23;;
46216;SDS011;47258;59.424;13.482;2022-09-27T12:00:33;3.42;;;1.83;;
46216;SDS011;47258;59.424;13.482;2022-09-27T12:03:12;5.53;;;1.73;;
46216;SDS011;47258;59.424;13.482;2022-09-27T12:05:47;4.70;;;2.17;;
46216;SDS011;47258;59.424;13.482;2022-09-27T12:08:21;2.22;;;1.80;;
46216;SDS011;47258;59.424;13.482;2022-09-27T12:10:56;7.38;;;2.42;;
46216;SDS011;47258;59.424;13.482;2022-09-27T12:13:28;6.65;;;2.65;;
46216;SDS011;47258;59.424;13.482;2022-09-27T12:16:00;2.78;;;1.45;;
46216;SDS011;47258;59.424;13.482;2022-09-27T12:18:28;2.60;;;1.45;;
46216;SDS011;47258;59.424;13.482;2022-09-27T12:20:58;2.67;;;1.60;;
46216;SDS011;47258;59.424;13.482;2022-09-27T12:23:27;1.95;;;1.45;;
46216;SDS011;47258;59.424;13.482;2022-09-27T12:28:25;2.45;;;1.63;;
46216;SDS011;47258;59.424;13.482;2022-09-27T12:31:01;6.20;;;2.15;;
46216;SDS011;47258;59.424;13.482;2022-09-27T12:33:32;2.25;;;2.05;;
46216;SDS011;47258;59.424;13.482;2022-09-27T12:36:03;3.33;;;2.10;;
46216;SDS011;47258;59.424;13.482;2022-09-27T12:40:58;2.38;;;1.85;;
46216;SDS011;47258;59.424;13.482;2022-09-27T12:43:27;4.32;;;1.88;;
46216;SDS011;47258;59.424;13.482;2022-09-27T12:45:58;3.35;;;1.60;;
46216;SDS011;47258;59.424;13.482;2022-09-27T12:48:33;1.85;;;1.75;;
46216;SDS011;47258;59.424;13.482;2022-09-27T12:51:05;3.28;;;1.85;;
46216;SDS011;47258;59.424;13.482;2022-09-27T12:53:36;5.65;;;1.90;;
46216;SDS011;47258;59.424;13.482;2022-09-27T12:56:15;1.48;;;1.33;;
46216;SDS011;47258;59.424;13.482;2022-09-27T12:58:50;3.78;;;2.17;;
46216;SDS011;47258;59.424;13.482;2022-09-27T13:01:24;5.70;;;1.30;;
46216;SDS011;47258;59.424;13.482;2022-09-27T13:09:27;4.82;;;1.25;;
46216;SDS011;47258;59.424;13.482;2022-09-27T13:12:01;3.28;;;2.03;;
46216;SDS011;47258;59.424;13.482;2022-09-27T13:14:31;3.10;;;1.85;;
46216;SDS011;47258;59.424;13.482;2022-09-27T13:17:01;5.40;;;1.50;;
46216;SDS011;47258;59.424;13.482;2022-09-27T13:19:38;1.38;;;1.27;;
46216;SDS011;47258;59.424;13.482;2022-09-27T13:22:07;1.90;;;1.30;;
46216;SDS011;47258;59.424;13.482;2022-09-27T13:24:46;4.45;;;1.85;;
46216;SDS011;47258;59.424;13.482;2022-09-27T13:32:50;2.88;;;1.10;;
46216;SDS011;47258;59.424;13.482;2022-09-27T13:35:38;2.22;;;1.08;;
46216;SDS011;47258;59.424;13.482;2022-09-27T13:38:17;2.92;;;0.98;;
46216;SDS011;47258;59.424;13.482;2022-09-27T13:40:48;1.80;;;1.13;;
46216;SDS011;47258;59.424;13.482;2022-09-27T13:45:48;2.90;;;1.10;;
46216;SDS011;47258;59.424;13.482;2022-09-27T13:48:20;2.20;;;0.90;;
46216;SDS011;47258;59.424;13.482;2022-09-27T13:50:50;1.83;;;0.93;;
46216;SDS011;47258;59.424;13.482;2022-09-27T13:53:22;3.33;;;0.98;;
46216;SDS011;47258;59.424;13.482;2022-09-27T13:55:52;0.73;;;0.70;;
46216;SDS011;47258;59.424;13.482;2022-09-27T13:58:38;2.47;;;1.17;;
46216;SDS011;47258;59.424;13.482;2022-09-27T14:01:10;1.70;;;0.90;;
46216;SDS011;47258;59.424;13.482;2022-09-27T14:03:47;2.28;;;0.80;;
46216;SDS011;47258;59.424;13.482;2022-09-27T14:06:18;0.88;;;0.70;;
46216;SDS011;47258;59.424;13.482;2022-09-27T14:08:47;3.25;;;0.90;;
46216;SDS011;47258;59.424;13.482;2022-09-27T14:11:17;1.95;;;0.98;;
46216;SDS011;47258;59.424;13.482;2022-09-27T14:13:47;1.40;;;0.80;;
46216;SDS011;47258;59.424;13.482;2022-09-27T14:16:15;2.40;;;1.15;;
46216;SDS011;47258;59.424;13.482;2022-09-27T14:18:44;1.87;;;0.87;;
46216;SDS011;47258;59.424;13.482;2022-09-27T14:21:16;4.78;;;1.20;;
46216;SDS011;47258;59.424;13.482;2022-09-27T14:23:45;7.00;;;1.30;;
46216;SDS011;47258;59.424;13.482;2022-09-27T14:26:21;2.22;;;0.90;;
46216;SDS011;47258;59.424;13.482;2022-09-27T14:28:48;5.05;;;1.20;;
46216;SDS011;47258;59.424;13.482;2022-09-27T14:31:16;0.73;;;0.70;;
46216;SDS011;47258;59.424;13.482;2022-09-27T14:33:44;3.50;;;0.90;;
46216;SDS011;47258;59.424;13.482;2022-09-27T14:36:16;2.55;;;1.00;;
46216;SDS011;47258;59.424;13.482;2022-09-27T14:39:10;2.83;;;0.80;;
46216;SDS011;47258;59.424;13.482;2022-09-27T14:41:39;4.00;;;1.23;;
46216;SDS011;47258;59.424;13.482;2022-09-27T14:44:11;3.45;;;1.08;;
46216;SDS011;47258;59.424;13.482;2022-09-27T14:46:40;2.28;;;1.58;;
46216;SDS011;47258;59.424;13.482;2022-09-27T14:49:10;1.30;;;0.98;;
46216;SDS011;47258;59.424;13.482;2022-09-27T14:51:38;1.10;;;1.00;;
46216;SDS011;47258;59.424;13.482;2022-09-27T14:54:05;3.05;;;1.02;;
46216;SDS011;47258;59.424;13.482;2022-09-27T14:59:06;2.58;;;0.98;;
46216;SDS011;47258;59.424;13.482;2022-09-27T15:01:35;1.92;;;1.27;;
46216;SDS011;47258;59.424;13.482;2022-09-27T15:04:04;5.05;;;0.95;;
46216;SDS011;47258;59.424;13.482;2022-09-27T15:06:31;1.15;;;0.90;;
46216;SDS011;47258;59.424;13.482;2022-09-27T15:08:59;6.55;;;1.20;;
46216;SDS011;47258;59.424;13.482;2022-09-27T15:11:26;1.20;;;1.10;;
46216;SDS011;47258;59.424;13.482;2022-09-27T15:13:57;2.90;;;1.45;;
46216;SDS011;47258;59.424;13.482;2022-09-27T15:16:27;1.70;;;1.10;;
46216;SDS011;47258;59.424;13.482;2022-09-27T15:19:00;3.50;;;1.30;;
46216;SDS011;47258;59.424;13.482;2022-09-27T15:21:32;5.57;;;1.63;;
46216;SDS011;47258;59.424;13.482;2022-09-27T15:24:00;4.53;;;1.13;;
46216;SDS011;47258;59.424;13.482;2022-09-27T15:26:33;3.88;;;1.13;;
46216;SDS011;47258;59.424;13.482;2022-09-27T15:29:03;1.80;;;0.93;;